Northern Jaeger — WNBG — position and weather

sailwx.info

Track history (hours):
 
Tides and Currents Weather Stations Pressure Air Temp Water Temp Dewpoint Dewpoint Depression Visibility Wind Speed Wind Dir Waves Ship Positions

Northern Jaeger

Owner: American Seafoods Company LLC, Seattle, WA. More information available from US FCC via Universal Licensing System and Coast Guard Vessel Documentation Center.

Last reported at 2018-Jun-16 14:16 UTC. Time now 2018-Jun-22 05:37 UTC.
Position N 49°10' W 127°03'.

Length 101 m; draft 7.3 m.

Type: Fishing. MMSI: 366046000.

Date/timePositionNaut miles runAvg speedWind from/ knotsBaromVisibWave heightAir tempDewpointWater temp
2018-Jun-16 14:16N 49°10' W 127°03'911.3
2018-Jun-16 13:28N 49°05' W 126°51'2411.5
2018-Jun-16 11:25N 48°54' W 126°19'712.1
2018-Jun-16 10:50N 48°51' W 126°09'412.3
2018-Jun-16 10:30N 48°49' W 126°04'612.6
2018-Jun-16 10:00N 48°46' W 125°56'612.9
2018-Jun-16 09:30N 48°43' W 125°47'612.2
2018-Jun-16 09:00N 48°41' W 125°39'612.0
2018-Jun-16 08:30N 48°38' W 125°31'2811.2
2018-Jun-16 05:59N 48°30' W 124°49'510.2
2018-Jun-16 05:30N 48°30' W 124°42'612.2
2018-Jun-16 05:00N 48°28' W 124°34'612.7
2018-Jun-16 04:30N 48°25' W 124°25'612.6
2018-Jun-16 04:00N 48°23' W 124°16'712.1
2018-Jun-16 03:24N 48°20' W 124°06'5 0.4
2018-Jun-15 14:11N 48°17' W 124°12'511.4
2018-Jun-15 13:47N 48°19' W 124°18'411.4
2018-Jun-15 13:27N 48°21' W 124°23'511.3
2018-Jun-15 13:00N 48°23' W 124°30'611.3
2018-Jun-15 12:30N 48°25' W 124°38'611.0
2018-Jun-15 12:00N 48°27' W 124°46'12311.5
2018-Jun-15 01:19N 46°25' W 125°10'412.3
2018-Jun-15 01:00N 46°21' W 125°10'612.4
2018-Jun-15 00:30N 46°15' W 125°09'612.3
2018-Jun-15 00:00N 46°09' W 125°08'612.2
2018-Jun-14 23:30N 46°03' W 125°07'612.0
2018-Jun-14 23:00N 45°57' W 125°06'712.2
2018-Jun-14 22:26N 45°50' W 125°04'512.4
2018-Jun-14 22:00N 45°45' W 125°04'912.7
2018-Jun-14 21:17N 45°35' W 125°03'174 4.4
2018-Jun-13 05:23N 42°41' W 124°46'  
Track history (hours):
 
Tides and Currents Weather Stations Pressure Air Temp Water Temp Dewpoint Dewpoint Depression Visibility Wind Speed Wind Dir Waves Ship Positions

Northern Jaeger

Owner: American Seafoods Company LLC, Seattle, WA. More information available from US FCC via Universal Licensing System and Coast Guard Vessel Documentation Center.

Last reported at 2018-Jun-16 14:16 UTC. Time now 2018-Jun-22 05:37 UTC.
Position N 49°10' W 127°03'.

Length 101 m; draft 7.3 m.

Type: Fishing. MMSI: 366046000.

Date/timePositionNaut miles runAvg speedWind from/ knotsBaromVisibWave heightAir tempDewpointWater temp
2018-Jun-16 14:16N 49°10' W 127°03'911.3
2018-Jun-16 13:28N 49°05' W 126°51'2411.5
2018-Jun-16 11:25N 48°54' W 126°19'712.1
2018-Jun-16 10:50N 48°51' W 126°09'412.3
2018-Jun-16 10:30N 48°49' W 126°04'612.6
2018-Jun-16 10:00N 48°46' W 125°56'612.9
2018-Jun-16 09:30N 48°43' W 125°47'612.2
2018-Jun-16 09:00N 48°41' W 125°39'612.0
2018-Jun-16 08:30N 48°38' W 125°31'2811.2
2018-Jun-16 05:59N 48°30' W 124°49'510.2
2018-Jun-16 05:30N 48°30' W 124°42'612.2
2018-Jun-16 05:00N 48°28' W 124°34'612.7
2018-Jun-16 04:30N 48°25' W 124°25'612.6
2018-Jun-16 04:00N 48°23' W 124°16'712.1
2018-Jun-16 03:24N 48°20' W 124°06'5 0.4
2018-Jun-15 14:11N 48°17' W 124°12'511.4
2018-Jun-15 13:47N 48°19' W 124°18'411.4
2018-Jun-15 13:27N 48°21' W 124°23'511.3
2018-Jun-15 13:00N 48°23' W 124°30'611.3
2018-Jun-15 12:30N 48°25' W 124°38'611.0
2018-Jun-15 12:00N 48°27' W 124°46'12311.5
2018-Jun-15 01:19N 46°25' W 125°10'412.3
2018-Jun-15 01:00N 46°21' W 125°10'612.4
2018-Jun-15 00:30N 46°15' W 125°09'612.3
2018-Jun-15 00:00N 46°09' W 125°08'612.2
2018-Jun-14 23:30N 46°03' W 125°07'612.0
2018-Jun-14 23:00N 45°57' W 125°06'712.2
2018-Jun-14 22:26N 45°50' W 125°04'512.4
2018-Jun-14 22:00N 45°45' W 125°04'912.7
2018-Jun-14 21:17N 45°35' W 125°03'174 4.4
2018-Jun-13 05:23N 42°41' W 124°46'  

Dump ship's entire track history